Time;durP1;ratioP1;P1;durP2;ratioP2;P2;SDS_P1;SDS_P2;PMS_P1;PMS_P2;Temp;Humidity;BMP_temperature;BMP_pressure;BME280_temperature;BME280_humidity;BME280_pressure;Samples;Min_cycle;Max_cycle;Signal;HPM_P1;HPM_P2
2021/05/05 08:22:06;;;;;;;8.05;1.92;;;10.50;91.20;;;;;;12056405;27;20348;-78
2021/05/05 08:27:53;;;;;;;8.98;1.75;;;11.10;91.50;;;;;;11941682;28;20518;-77
2021/05/05 08:33:39;;;;;;;10.23;2.10;;;11.60;87.90;;;;;;11927941;28;20716;-79
2021/05/05 08:39:27;;;;;;;13.38;1.70;;;11.90;85.00;;;;;;11920799;28;20045;-78
2021/05/05 08:45:18;;;;;;;5.80;1.40;;;11.90;83.80;;;;;;11933486;28;20061;-78
2021/05/05 08:51:08;;;;;;;11.15;2.03;;;11.80;82.30;;;;;;11950533;28;20060;-78
2021/05/05 08:56:55;;;;;;;6.20;1.50;;;11.70;81.30;;;;;;11973186;28;20044;-78
2021/05/05 09:02:42;;;;;;;8.60;1.77;;;11.70;81.00;;;;;;11968412;28;20099;-80
2021/05/05 09:08:30;;;;;;;8.02;2.00;;;12.00;79.60;;;;;;11936007;28;20048;-78
2021/05/05 09:14:19;;;;;;;11.60;2.38;;;12.40;78.50;;;;;;11960478;28;20048;-78
2021/05/05 09:20:13;;;;;;;7.28;1.48;;;12.40;77.00;;;;;;11950178;28;20068;-79
2021/05/05 09:26:00;;;;;;;8.77;1.90;;;12.60;74.00;;;;;;11927983;28;20561;-78
2021/05/05 09:31:47;;;;;;;4.95;1.63;;;12.30;75.00;;;;;;11925152;28;20470;-79
2021/05/05 09:37:34;;;;;;;11.18;1.90;;;12.80;73.70;;;;;;11928294;28;20053;-78
2021/05/05 09:43:20;;;;;;;8.63;1.65;;;13.20;70.40;;;;;;11895843;28;20054;-79
2021/05/05 09:49:26;;;;;;;9.77;1.70;;;13.50;70.40;;;;;;11900888;28;20045;-80
2021/05/05 09:55:19;;;;;;;12.77;3.97;;;13.10;71.20;;;;;;11926264;28;20057;-83
2021/05/05 10:01:10;;;;;;;6.77;1.30;;;13.40;69.40;;;;;;11952695;28;20061;-81
2021/05/05 10:07:00;;;;;;;4.85;1.60;;;13.80;69.70;;;;;;11903004;28;20049;-77
2021/05/05 10:12:47;;;;;;;10.48;1.95;;;14.10;67.90;;;;;;11855949;28;20096;-81
2021/05/05 10:18:33;;;;;;;7.18;1.67;;;14.00;65.60;;;;;;11938810;28;20053;-78
2021/05/05 10:24:22;;;;;;;7.57;1.75;;;13.80;65.10;;;;;;11908621;28;20512;-79
2021/05/05 10:30:11;;;;;;;9.30;1.70;;;13.80;65.50;;;;;;11917504;28;20050;-81
2021/05/05 10:36:34;;;;;;;9.18;1.63;;;13.60;66.00;;;;;;11919446;28;20432;-80
2021/05/05 10:42:26;;;;;;;9.82;1.58;;;13.50;67.90;;;;;;11843828;28;20085;-79
2021/05/05 10:48:14;;;;;;;9.43;1.45;;;13.40;67.70;;;;;;11835509;28;21888;-78
2021/05/05 10:54:00;;;;;;;8.32;1.50;;;13.70;67.40;;;;;;11822102;28;20055;-79
2021/05/05 11:00:10;;;;;;;4.63;1.50;;;14.10;66.50;;;;;;11796929;28;20214;-81
2021/05/05 11:05:59;;;;;;;5.57;1.30;;;14.40;64.70;;;;;;11822142;28;20085;-81
2021/05/05 11:11:46;;;;;;;8.45;1.60;;;14.70;61.80;;;;;;11818215;28;20249;-78
2021/05/05 11:17:33;;;;;;;5.93;1.40;;;15.10;60.80;;;;;;11853140;28;20054;-78
2021/05/05 11:23:43;;;;;;;9.60;1.65;;;15.30;60.10;;;;;;11904459;28;20061;-77
2021/05/05 11:29:35;;;;;;;7.03;1.48;;;15.20;58.20;;;;;;11910109;28;20053;-80
2021/05/05 11:35:26;;;;;;;3.05;1.33;;;15.40;58.40;;;;;;11929120;28;20496;-79
2021/05/05 11:41:13;;;;;;;5.15;1.40;;;15.30;57.70;;;;;;11946262;28;20056;-80
2021/05/05 11:47:00;;;;;;;10.05;1.63;;;14.80;59.90;;;;;;11930601;28;20069;-82
2021/05/05 11:52:50;;;;;;;7.82;1.40;;;15.10;58.90;;;;;;11923767;28;20046;-80
2021/05/05 11:58:37;;;;;;;4.03;1.38;;;15.00;55.40;;;;;;11936311;28;20052;-80
2021/05/05 12:04:23;;;;;;;8.18;2.20;;;14.60;57.90;;;;;;11918352;28;20050;-80
2021/05/05 12:10:11;;;;;;;6.38;1.73;;;13.20;73.80;;;;;;11887711;28;20054;-80
2021/05/05 12:16:07;;;;;;;10.48;1.83;;;12.70;79.40;;;;;;11950450;28;20053;-81
2021/05/05 12:21:56;;;;;;;7.05;1.45;;;13.20;80.40;;;;;;11978744;28;20075;-80
2021/05/05 12:28:16;;;;;;;5.88;1.48;;;13.50;72.40;;;;;;11952953;28;20049;-83
2021/05/05 12:34:05;;;;;;;3.72;1.10;;;14.10;71.50;;;;;;11919009;28;21541;-80
2021/05/05 12:39:52;;;;;;;5.65;1.33;;;14.00;64.50;;;;;;11953941;28;20051;-80
2021/05/05 12:45:39;;;;;;;7.63;1.35;;;13.70;65.60;;;;;;11942816;28;20049;-80
2021/05/05 12:51:36;;;;;;;7.45;1.23;;;13.10;73.00;;;;;;11911398;28;20050;-79
2021/05/05 12:57:23;;;;;;;7.13;1.45;;;12.90;71.60;;;;;;11922665;28;20050;-78
2021/05/05 13:03:11;;;;;;;9.75;1.95;;;12.50;88.40;;;;;;11923143;28;20053;-78
2021/05/05 13:09:10;;;;;;;7.25;1.45;;;12.30;91.70;;;;;;11932979;28;20059;-79
2021/05/05 13:15:06;;;;;;;4.30;1.40;;;13.10;95.70;;;;;;11914877;28;20189;-79
2021/05/05 13:33:25;;;;;;;3.88;1.25;;;14.60;78.00;;;;;;11807629;28;20053;-81
2021/05/05 13:39:12;;;;;;;3.38;1.10;;;15.00;69.90;;;;;;11791723;28;20066;-80
2021/05/05 13:45:01;;;;;;;2.20;0.90;;;14.70;68.00;;;;;;11806096;28;20105;-80
2021/05/05 13:50:48;;;;;;;9.80;1.92;;;14.30;65.50;;;;;;11784401;28;20099;-79
2021/05/05 13:56:37;;;;;;;9.45;2.00;;;14.10;68.20;;;;;;11831821;28;20074;-80
2021/05/05 14:02:24;;;;;;;3.30;1.30;;;13.50;78.70;;;;;;11795222;28;20066;-79
2021/05/05 14:08:10;;;;;;;3.53;1.50;;;12.90;83.40;;;;;;11888690;28;20482;-81
2021/05/05 14:13:57;;;;;;;4.05;1.40;;;12.70;85.90;;;;;;11955505;28;20479;-80
2021/05/05 14:19:44;;;;;;;8.98;1.33;;;12.90;85.00;;;;;;11941523;28;20056;-79
2021/05/05 14:25:31;;;;;;;2.03;1.10;;;13.40;82.20;;;;;;11944132;28;20076;-80
2021/05/05 14:37:20;;;;;;;4.85;1.20;;;13.20;79.40;;;;;;11958030;28;20072;-80
2021/05/05 14:43:12;;;;;;;7.03;1.48;;;13.40;80.00;;;;;;11969134;28;20053;-79
2021/05/05 14:48:59;;;;;;;4.10;1.40;;;13.70;78.30;;;;;;11958027;28;20045;-79
2021/05/05 14:54:46;;;;;;;5.80;1.55;;;13.50;77.10;;;;;;11907407;28;20471;-81
2021/05/05 15:00:34;;;;;;;9.77;1.30;;;13.70;76.50;;;;;;11930295;28;20116;-82
2021/05/05 15:06:25;;;;;;;5.88;2.10;;;14.50;74.30;;;;;;11943138;28;20049;-80
2021/05/05 15:12:20;;;;;;;6.20;1.98;;;15.20;70.20;;;;;;11941015;28;20049;-81
2021/05/05 15:33:52;;;;;;;4.90;1.40;;;14.40;72.40;;;;;;11892964;28;20037;-78
2021/05/05 15:36:26;;;;;;;7.13;1.70;;;13.90;77.70;;;;;;11903913;28;20064;-71
2021/05/05 15:42:15;;;;;;;4.30;1.50;;;13.50;83.60;;;;;;11927735;28;20056;-73
2021/05/05 15:48:04;;;;;;;5.25;1.75;;;12.00;90.70;;;;;;11910346;28;20778;-74
2021/05/05 15:53:52;;;;;;;6.47;1.85;;;11.60;95.60;;;;;;11863362;28;20523;-72
2021/05/05 15:59:50;;;;;;;6.35;2.30;;;11.60;96.70;;;;;;11888224;28;20145;-72
2021/05/05 16:11:59;;;;;;;5.03;2.05;;;12.70;99.90;;;;;;11883438;28;20147;-72
2021/05/05 16:17:46;;;;;;;5.93;1.67;;;13.20;99.90;;;;;;11907041;28;20049;-72
2021/05/05 16:24:00;;;;;;;11.35;1.95;;;13.70;99.60;;;;;;11934509;28;20077;-72
2021/05/05 16:29:59;;;;;;;7.47;2.00;;;14.90;96.10;;;;;;11887821;28;20495;-72
2021/05/05 16:48:05;;;;;;;1.45;1.30;;;13.20;91.50;;;;;;11913631;28;20676;-73
2021/05/05 17:06:31;;;;;;;6.80;2.15;;;13.40;88.00;;;;;;11844402;28;20143;-74
2021/05/05 17:12:32;;;;;;;5.63;2.00;;;13.70;86.40;;;;;;11859600;28;20058;-73
2021/05/05 17:18:27;;;;;;;6.95;1.50;;;17.50;73.40;;;;;;11872582;28;20062;-74
2021/05/05 17:24:18;;;;;;;7.80;1.70;;;18.40;68.70;;;;;;11915329;28;20158;-73
2021/05/05 17:30:24;;;;;;;8.27;1.98;;;17.70;68.60;;;;;;11896615;28;20084;-74
2021/05/05 17:48:34;;;;;;;5.45;1.65;;;15.50;77.80;;;;;;11900564;28;20042;-72
2021/05/05 18:19:01;;;;;;;7.38;1.92;;;15.40;79.30;;;;;;11916425;28;21141;-73
2021/05/05 18:24:57;;;;;;;13.50;1.90;;;15.20;80.50;;;;;;11912890;28;20072;-73
2021/05/05 18:30:44;;;;;;;5.45;1.98;;;15.30;82.30;;;;;;11919529;28;20053;-74
2021/05/05 18:36:31;;;;;;;4.10;2.13;;;15.30;80.00;;;;;;11911701;28;20150;-73
2021/05/05 18:42:20;;;;;;;4.00;1.92;;;15.00;85.30;;;;;;11869825;28;20104;-74
2021/05/05 19:49:41;;;;;;;7.90;2.00;;;13.20;93.70;;;;;;11763298;28;20072;-74
2021/05/05 20:26:26;;;;;;;5.88;2.55;;;13.10;93.80;;;;;;11858861;28;20058;-73
2021/05/05 20:51:06;;;;;;;8.98;3.13;;;13.10;94.10;;;;;;11897670;28;20057;-74
2021/05/05 21:09:21;;;;;;;6.72;3.22;;;13.00;95.30;;;;;;11900136;28;20052;-74
2021/05/05 21:58:42;;;;;;;4.75;3.10;;;12.80;96.40;;;;;;11779566;28;20540;-73
